aviador You're here:

PAVL Decoded Metar

KIVALINA in AK, USA
Report Time2017-11-24 19:53:00
UTC Time2017-11-24 20:07:23
Flight Rules vfr VFR
Wind310° at 15 kt
W.Decomp.*RWY 30: 14.9 kt HW 1.3 kt LCW
W.Rank310° ranks 26
Current wind is above 310° avg. (9.9)
Visibility9999 m
Phenomena:N/A
Clouds:Broken 070 Hf
Expected CloudBase > 1,200 ft AGL from Temp-Dew spread
Ceiling7,000 ft
Temp-9°C (ISA -24)
Dew Point-12°C (79% RH)
AAT-17.6°C
QNH1018 hPa
Density Alt-3,120 ft
Elevation10 ft
Report Wrong Elevation
Raw Report
PAVL 241953Z AUTO 31015KT 8SM BKN070 M09/M12 A3007 RMK AO2 SLP181
T10891117 TSNO PNO $=

Extra information for PAVL:More info

Metar Taf Metar & Taf Last 4 Metars F.Rules Stats Wind Profile Meteogram Temp Stats Airport Information Weather charts Add Link Nearby VenuesMetar ALERT Operation Metar Decoded Social comments

AIRNAV info for PAVL